sensor_id;sensor_type;location;lat;lon;timestamp;P1;durP1;ratioP1;P2;durP2;ratioP2
31910;SDS011;18457;52.432;16.914;2023-03-19T00:00:52;88.90;;;38.80;;
31910;SDS011;18457;52.432;16.914;2023-03-19T00:03:43;87.20;;;37.80;;
31910;SDS011;18457;52.432;16.914;2023-03-19T00:06:16;73.60;;;36.30;;
31910;SDS011;18457;52.432;16.914;2023-03-19T00:08:48;77.60;;;37.10;;
31910;SDS011;18457;52.432;16.914;2023-03-19T00:11:20;81.60;;;38.00;;
31910;SDS011;18457;52.432;16.914;2023-03-19T00:13:52;82.90;;;38.20;;
31910;SDS011;18457;52.432;16.914;2023-03-19T00:16:24;62.10;;;28.90;;
31910;SDS011;18457;52.432;16.914;2023-03-19T00:18:57;84.60;;;40.70;;
31910;SDS011;18457;52.432;16.914;2023-03-19T00:21:29;80.40;;;38.80;;
31910;SDS011;18457;52.432;16.914;2023-03-19T00:24:01;84.30;;;38.70;;
31910;SDS011;18457;52.432;16.914;2023-03-19T00:26:33;94.30;;;38.70;;
31910;SDS011;18457;52.432;16.914;2023-03-19T00:29:06;82.90;;;38.70;;
31910;SDS011;18457;52.432;16.914;2023-03-19T00:31:41;83.10;;;38.00;;
31910;SDS011;18457;52.432;16.914;2023-03-19T00:34:13;85.50;;;38.10;;
31910;SDS011;18457;52.432;16.914;2023-03-19T00:36:47;74.20;;;36.80;;
31910;SDS011;18457;52.432;16.914;2023-03-19T00:39:19;74.60;;;36.40;;
31910;SDS011;18457;52.432;16.914;2023-03-19T00:41:51;77.50;;;37.10;;
31910;SDS011;18457;52.432;16.914;2023-03-19T00:44:22;83.30;;;37.20;;
31910;SDS011;18457;52.432;16.914;2023-03-19T00:46:54;79.70;;;39.20;;
31910;SDS011;18457;52.432;16.914;2023-03-19T00:49:26;83.90;;;38.00;;
31910;SDS011;18457;52.432;16.914;2023-03-19T00:51:58;83.90;;;40.70;;
31910;SDS011;18457;52.432;16.914;2023-03-19T00:54:30;75.20;;;36.50;;
31910;SDS011;18457;52.432;16.914;2023-03-19T00:57:02;77.60;;;37.90;;
31910;SDS011;18457;52.432;16.914;2023-03-19T00:59:34;79.30;;;37.20;;
31910;SDS011;18457;52.432;16.914;2023-03-19T01:02:06;59.00;;;28.40;;
31910;SDS011;18457;52.432;16.914;2023-03-19T01:04:38;87.00;;;37.50;;
31910;SDS011;18457;52.432;16.914;2023-03-19T01:07:11;88.80;;;37.40;;
31910;SDS011;18457;52.432;16.914;2023-03-19T01:09:43;82.40;;;37.30;;
31910;SDS011;18457;52.432;16.914;2023-03-19T01:12:15;91.60;;;37.20;;
31910;SDS011;18457;52.432;16.914;2023-03-19T01:14:49;80.70;;;36.60;;
31910;SDS011;18457;52.432;16.914;2023-03-19T01:17:21;61.30;;;29.30;;
31910;SDS011;18457;52.432;16.914;2023-03-19T01:19:53;83.20;;;38.00;;
31910;SDS011;18457;52.432;16.914;2023-03-19T01:22:25;87.70;;;40.00;;
31910;SDS011;18457;52.432;16.914;2023-03-19T01:25:00;80.50;;;36.20;;
31910;SDS011;18457;52.432;16.914;2023-03-19T01:27:33;84.20;;;38.20;;
31910;SDS011;18457;52.432;16.914;2023-03-19T01:33:06;87.70;;;37.40;;
31910;SDS011;18457;52.432;16.914;2023-03-19T01:38:21;81.90;;;38.10;;
31910;SDS011;18457;52.432;16.914;2023-03-19T01:40:55;86.10;;;39.50;;
31910;SDS011;18457;52.432;16.914;2023-03-19T01:46:10;90.60;;;38.30;;
31910;SDS011;18457;52.432;16.914;2023-03-19T01:49:12;84.10;;;36.40;;
31910;SDS011;18457;52.432;16.914;2023-03-19T01:51:48;83.60;;;41.00;;
31910;SDS011;18457;52.432;16.914;2023-03-19T01:54:35;86.70;;;40.20;;
31910;SDS011;18457;52.432;16.914;2023-03-19T01:57:26;93.30;;;39.20;;
31910;SDS011;18457;52.432;16.914;2023-03-19T02:00:24;81.10;;;38.70;;
31910;SDS011;18457;52.432;16.914;2023-03-19T02:02:57;91.60;;;40.50;;
31910;SDS011;18457;52.432;16.914;2023-03-19T02:05:40;85.30;;;39.20;;
31910;SDS011;18457;52.432;16.914;2023-03-19T02:08:15;84.20;;;40.70;;
31910;SDS011;18457;52.432;16.914;2023-03-19T02:10:52;92.50;;;41.40;;
31910;SDS011;18457;52.432;16.914;2023-03-19T02:13:28;88.70;;;42.20;;
31910;SDS011;18457;52.432;16.914;2023-03-19T02:16:00;85.10;;;39.90;;
31910;SDS011;18457;52.432;16.914;2023-03-19T02:18:32;63.60;;;28.30;;
31910;SDS011;18457;52.432;16.914;2023-03-19T02:21:06;90.70;;;40.00;;
31910;SDS011;18457;52.432;16.914;2023-03-19T02:23:40;78.60;;;38.40;;
31910;SDS011;18457;52.432;16.914;2023-03-19T02:26:21;86.00;;;39.70;;
31910;SDS011;18457;52.432;16.914;2023-03-19T02:29:00;93.00;;;41.50;;
31910;SDS011;18457;52.432;16.914;2023-03-19T02:31:34;82.40;;;39.40;;
31910;SDS011;18457;52.432;16.914;2023-03-19T02:34:31;75.70;;;37.20;;
31910;SDS011;18457;52.432;16.914;2023-03-19T02:37:08;83.60;;;38.50;;
31910;SDS011;18457;52.432;16.914;2023-03-19T02:39:53;81.30;;;37.90;;
31910;SDS011;18457;52.432;16.914;2023-03-19T02:42:28;78.40;;;37.20;;
31910;SDS011;18457;52.432;16.914;2023-03-19T02:45:01;84.00;;;37.80;;
31910;SDS011;18457;52.432;16.914;2023-03-19T02:47:33;79.30;;;38.80;;
31910;SDS011;18457;52.432;16.914;2023-03-19T02:50:06;85.70;;;40.20;;
31910;SDS011;18457;52.432;16.914;2023-03-19T02:52:40;87.70;;;39.70;;
31910;SDS011;18457;52.432;16.914;2023-03-19T02:55:12;87.80;;;39.70;;
31910;SDS011;18457;52.432;16.914;2023-03-19T02:57:46;84.10;;;39.30;;
31910;SDS011;18457;52.432;16.914;2023-03-19T03:00:18;83.70;;;39.20;;
31910;SDS011;18457;52.432;16.914;2023-03-19T03:02:51;98.20;;;41.00;;
31910;SDS011;18457;52.432;16.914;2023-03-19T03:05:24;97.00;;;44.20;;
31910;SDS011;18457;52.432;16.914;2023-03-19T03:07:56;94.00;;;40.10;;
31910;SDS011;18457;52.432;16.914;2023-03-19T03:10:29;69.40;;;30.80;;
31910;SDS011;18457;52.432;16.914;2023-03-19T03:13:01;88.30;;;42.70;;
31910;SDS011;18457;52.432;16.914;2023-03-19T03:15:34;90.80;;;41.10;;
31910;SDS011;18457;52.432;16.914;2023-03-19T03:18:06;96.10;;;42.70;;
31910;SDS011;18457;52.432;16.914;2023-03-19T03:20:37;91.50;;;42.60;;
31910;SDS011;18457;52.432;16.914;2023-03-19T03:23:09;98.30;;;42.00;;
31910;SDS011;18457;52.432;16.914;2023-03-19T03:25:41;100.20;;;41.80;;
31910;SDS011;18457;52.432;16.914;2023-03-19T03:28:13;89.90;;;39.30;;
31910;SDS011;18457;52.432;16.914;2023-03-19T03:30:46;79.70;;;36.30;;
31910;SDS011;18457;52.432;16.914;2023-03-19T03:33:18;80.90;;;37.50;;
31910;SDS011;18457;52.432;16.914;2023-03-19T03:35:50;82.60;;;37.00;;
31910;SDS011;18457;52.432;16.914;2023-03-19T03:38:22;81.00;;;37.80;;
31910;SDS011;18457;52.432;16.914;2023-03-19T03:40:55;89.80;;;37.90;;
31910;SDS011;18457;52.432;16.914;2023-03-19T03:43:27;83.00;;;37.80;;
31910;SDS011;18457;52.432;16.914;2023-03-19T03:45:59;82.80;;;38.20;;
31910;SDS011;18457;52.432;16.914;2023-03-19T03:48:31;86.70;;;38.40;;
31910;SDS011;18457;52.432;16.914;2023-03-19T03:51:04;76.70;;;37.40;;
31910;SDS011;18457;52.432;16.914;2023-03-19T03:53:36;81.00;;;37.70;;
31910;SDS011;18457;52.432;16.914;2023-03-19T03:56:08;81.30;;;37.30;;
31910;SDS011;18457;52.432;16.914;2023-03-19T03:58:40;61.30;;;27.80;;
31910;SDS011;18457;52.432;16.914;2023-03-19T04:01:14;67.70;;;29.80;;
31910;SDS011;18457;52.432;16.914;2023-03-19T04:03:47;84.20;;;38.40;;
31910;SDS011;18457;52.432;16.914;2023-03-19T04:06:20;57.70;;;29.10;;
31910;SDS011;18457;52.432;16.914;2023-03-19T04:09:06;77.90;;;37.60;;
31910;SDS011;18457;52.432;16.914;2023-03-19T04:11:39;66.90;;;27.80;;
31910;SDS011;18457;52.432;16.914;2023-03-19T04:14:11;87.20;;;39.90;;
31910;SDS011;18457;52.432;16.914;2023-03-19T04:16:43;78.20;;;37.50;;
31910;SDS011;18457;52.432;16.914;2023-03-19T04:21:47;85.80;;;37.60;;
31910;SDS011;18457;52.432;16.914;2023-03-19T04:24:19;88.20;;;40.30;;
31910;SDS011;18457;52.432;16.914;2023-03-19T04:26:51;85.30;;;40.00;;
31910;SDS011;18457;52.432;16.914;2023-03-19T04:29:23;89.50;;;39.90;;
31910;SDS011;18457;52.432;16.914;2023-03-19T04:31:55;70.70;;;33.00;;
31910;SDS011;18457;52.432;16.914;2023-03-19T04:34:27;86.50;;;40.70;;
31910;SDS011;18457;52.432;16.914;2023-03-19T04:37:00;84.90;;;41.60;;
31910;SDS011;18457;52.432;16.914;2023-03-19T04:42:03;87.20;;;39.00;;
31910;SDS011;18457;52.432;16.914;2023-03-19T04:44:41;89.70;;;41.60;;
31910;SDS011;18457;52.432;16.914;2023-03-19T04:49:56;65.50;;;28.30;;
31910;SDS011;18457;52.432;16.914;2023-03-19T04:52:31;86.30;;;38.10;;
31910;SDS011;18457;52.432;16.914;2023-03-19T04:55:03;91.00;;;40.10;;
31910;SDS011;18457;52.432;16.914;2023-03-19T04:57:47;85.60;;;40.20;;
31910;SDS011;18457;52.432;16.914;2023-03-19T05:00:21;75.70;;;38.00;;
31910;SDS011;18457;52.432;16.914;2023-03-19T05:02:54;86.00;;;38.50;;
31910;SDS011;18457;52.432;16.914;2023-03-19T05:05:26;82.80;;;38.80;;
31910;SDS011;18457;52.432;16.914;2023-03-19T05:07:59;79.30;;;40.60;;
31910;SDS011;18457;52.432;16.914;2023-03-19T05:10:31;79.50;;;39.20;;
31910;SDS011;18457;52.432;16.914;2023-03-19T05:13:05;80.80;;;39.40;;
31910;SDS011;18457;52.432;16.914;2023-03-19T05:15:41;99.10;;;42.10;;
31910;SDS011;18457;52.432;16.914;2023-03-19T05:18:14;84.60;;;40.30;;
31910;SDS011;18457;52.432;16.914;2023-03-19T05:20:47;83.80;;;37.60;;
31910;SDS011;18457;52.432;16.914;2023-03-19T05:23:21;90.60;;;40.20;;
31910;SDS011;18457;52.432;16.914;2023-03-19T05:26:01;76.30;;;37.80;;
31910;SDS011;18457;52.432;16.914;2023-03-19T05:28:54;83.70;;;39.00;;
31910;SDS011;18457;52.432;16.914;2023-03-19T05:31:34;90.60;;;40.00;;
31910;SDS011;18457;52.432;16.914;2023-03-19T05:34:08;91.00;;;40.90;;
31910;SDS011;18457;52.432;16.914;2023-03-19T05:36:41;79.50;;;39.30;;
31910;SDS011;18457;52.432;16.914;2023-03-19T05:39:17;81.00;;;39.30;;
31910;SDS011;18457;52.432;16.914;2023-03-19T05:41:49;63.10;;;28.90;;
31910;SDS011;18457;52.432;16.914;2023-03-19T05:44:24;90.10;;;38.80;;
31910;SDS011;18457;52.432;16.914;2023-03-19T05:47:03;87.50;;;40.90;;
31910;SDS011;18457;52.432;16.914;2023-03-19T05:49:37;83.50;;;39.90;;
31910;SDS011;18457;52.432;16.914;2023-03-19T05:52:10;88.00;;;40.90;;
31910;SDS011;18457;52.432;16.914;2023-03-19T05:54:42;92.50;;;42.40;;
31910;SDS011;18457;52.432;16.914;2023-03-19T05:57:31;80.70;;;39.70;;
31910;SDS011;18457;52.432;16.914;2023-03-19T06:00:23;84.40;;;39.10;;
31910;SDS011;18457;52.432;16.914;2023-03-19T06:05:36;86.10;;;38.00;;
31910;SDS011;18457;52.432;16.914;2023-03-19T06:08:32;79.60;;;37.00;;
31910;SDS011;18457;52.432;16.914;2023-03-19T06:11:22;94.10;;;41.10;;
31910;SDS011;18457;52.432;16.914;2023-03-19T06:14:15;80.00;;;35.80;;
31910;SDS011;18457;52.432;16.914;2023-03-19T06:16:56;82.70;;;38.30;;
31910;SDS011;18457;52.432;16.914;2023-03-19T06:19:29;79.70;;;36.40;;
31910;SDS011;18457;52.432;16.914;2023-03-19T06:22:01;83.40;;;38.90;;
31910;SDS011;18457;52.432;16.914;2023-03-19T06:24:33;81.90;;;37.90;;
31910;SDS011;18457;52.432;16.914;2023-03-19T06:27:05;82.70;;;37.00;;
31910;SDS011;18457;52.432;16.914;2023-03-19T06:29:37;82.00;;;36.50;;
31910;SDS011;18457;52.432;16.914;2023-03-19T06:32:23;70.70;;;34.10;;
31910;SDS011;18457;52.432;16.914;2023-03-19T06:34:55;75.70;;;38.40;;
31910;SDS011;18457;52.432;16.914;2023-03-19T06:37:28;82.60;;;34.70;;
31910;SDS011;18457;52.432;16.914;2023-03-19T06:40:00;58.70;;;28.30;;
31910;SDS011;18457;52.432;16.914;2023-03-19T06:42:33;78.80;;;36.80;;
31910;SDS011;18457;52.432;16.914;2023-03-19T06:45:06;76.60;;;38.50;;
31910;SDS011;18457;52.432;16.914;2023-03-19T06:47:40;84.50;;;38.20;;
31910;SDS011;18457;52.432;16.914;2023-03-19T06:50:13;78.00;;;37.10;;
31910;SDS011;18457;52.432;16.914;2023-03-19T06:52:46;77.60;;;36.40;;
31910;SDS011;18457;52.432;16.914;2023-03-19T06:55:18;77.30;;;36.70;;
31910;SDS011;18457;52.432;16.914;2023-03-19T06:57:50;51.70;;;25.70;;
31910;SDS011;18457;52.432;16.914;2023-03-19T07:00:22;77.20;;;37.90;;
31910;SDS011;18457;52.432;16.914;2023-03-19T07:02:54;79.40;;;36.60;;
31910;SDS011;18457;52.432;16.914;2023-03-19T07:05:26;77.90;;;37.50;;
31910;SDS011;18457;52.432;16.914;2023-03-19T07:07:58;71.00;;;34.50;;
31910;SDS011;18457;52.432;16.914;2023-03-19T07:10:30;86.90;;;36.80;;
31910;SDS011;18457;52.432;16.914;2023-03-19T07:13:03;83.20;;;37.90;;
31910;SDS011;18457;52.432;16.914;2023-03-19T07:15:35;74.00;;;36.70;;
31910;SDS011;18457;52.432;16.914;2023-03-19T07:18:08;76.50;;;37.50;;
31910;SDS011;18457;52.432;16.914;2023-03-19T07:20:40;74.10;;;36.80;;
31910;SDS011;18457;52.432;16.914;2023-03-19T07:23:12;74.10;;;36.70;;
31910;SDS011;18457;52.432;16.914;2023-03-19T07:25:44;51.50;;;25.00;;
31910;SDS011;18457;52.432;16.914;2023-03-19T07:28:17;70.50;;;36.30;;
31910;SDS011;18457;52.432;16.914;2023-03-19T07:30:51;73.20;;;35.30;;
31910;SDS011;18457;52.432;16.914;2023-03-19T07:33:23;75.20;;;37.00;;
31910;SDS011;18457;52.432;16.914;2023-03-19T07:35:55;72.90;;;35.10;;
31910;SDS011;18457;52.432;16.914;2023-03-19T07:38:27;73.50;;;35.90;;
31910;SDS011;18457;52.432;16.914;2023-03-19T07:41:00;75.60;;;35.70;;
31910;SDS011;18457;52.432;16.914;2023-03-19T07:43:32;72.40;;;35.50;;
31910;SDS011;18457;52.432;16.914;2023-03-19T07:46:05;80.40;;;37.10;;
31910;SDS011;18457;52.432;16.914;2023-03-19T07:48:37;77.60;;;36.90;;
31910;SDS011;18457;52.432;16.914;2023-03-19T07:51:09;83.70;;;37.10;;
31910;SDS011;18457;52.432;16.914;2023-03-19T07:53:42;75.10;;;37.20;;
31910;SDS011;18457;52.432;16.914;2023-03-19T07:56:14;75.40;;;37.70;;
31910;SDS011;18457;52.432;16.914;2023-03-19T07:58:46;73.30;;;35.80;;
31910;SDS011;18457;52.432;16.914;2023-03-19T08:01:18;58.70;;;26.80;;
31910;SDS011;18457;52.432;16.914;2023-03-19T08:03:51;74.50;;;35.30;;
31910;SDS011;18457;52.432;16.914;2023-03-19T08:06:23;47.60;;;25.60;;
31910;SDS011;18457;52.432;16.914;2023-03-19T08:08:56;74.70;;;36.50;;
31910;SDS011;18457;52.432;16.914;2023-03-19T08:11:28;76.90;;;38.20;;
31910;SDS011;18457;52.432;16.914;2023-03-19T08:14:00;72.00;;;36.70;;
31910;SDS011;18457;52.432;16.914;2023-03-19T08:16:32;72.50;;;36.40;;
31910;SDS011;18457;52.432;16.914;2023-03-19T08:19:04;68.30;;;35.30;;
31910;SDS011;18457;52.432;16.914;2023-03-19T08:21:37;66.80;;;34.40;;
31910;SDS011;18457;52.432;16.914;2023-03-19T08:24:12;67.90;;;34.80;;
31910;SDS011;18457;52.432;16.914;2023-03-19T08:26:44;66.50;;;34.30;;
31910;SDS011;18457;52.432;16.914;2023-03-19T08:29:16;76.60;;;36.20;;
31910;SDS011;18457;52.432;16.914;2023-03-19T08:31:48;76.30;;;35.90;;
31910;SDS011;18457;52.432;16.914;2023-03-19T08:34:22;77.80;;;35.70;;
31910;SDS011;18457;52.432;16.914;2023-03-19T08:36:55;74.60;;;34.20;;
31910;SDS011;18457;52.432;16.914;2023-03-19T08:39:29;70.50;;;34.10;;
31910;SDS011;18457;52.432;16.914;2023-03-19T08:42:01;59.20;;;27.90;;
31910;SDS011;18457;52.432;16.914;2023-03-19T08:44:33;75.40;;;36.90;;
31910;SDS011;18457;52.432;16.914;2023-03-19T08:47:06;72.80;;;35.20;;
31910;SDS011;18457;52.432;16.914;2023-03-19T08:49:38;67.70;;;34.70;;
31910;SDS011;18457;52.432;16.914;2023-03-19T08:52:10;73.30;;;36.00;;
31910;SDS011;18457;52.432;16.914;2023-03-19T08:54:42;72.20;;;35.20;;
31910;SDS011;18457;52.432;16.914;2023-03-19T08:57:14;79.00;;;36.10;;
31910;SDS011;18457;52.432;16.914;2023-03-19T08:59:47;69.70;;;36.20;;
31910;SDS011;18457;52.432;16.914;2023-03-19T09:02:19;69.90;;;34.90;;
31910;SDS011;18457;52.432;16.914;2023-03-19T09:04:51;65.80;;;34.70;;
31910;SDS011;18457;52.432;16.914;2023-03-19T09:07:23;70.10;;;36.50;;
31910;SDS011;18457;52.432;16.914;2023-03-19T09:09:55;77.00;;;36.10;;
31910;SDS011;18457;52.432;16.914;2023-03-19T09:12:27;65.20;;;35.40;;
31910;SDS011;18457;52.432;16.914;2023-03-19T09:15:07;75.10;;;35.00;;
31910;SDS011;18457;52.432;16.914;2023-03-19T09:17:40;72.20;;;34.90;;
31910;SDS011;18457;52.432;16.914;2023-03-19T09:20:12;66.40;;;35.00;;
31910;SDS011;18457;52.432;16.914;2023-03-19T09:22:44;66.70;;;35.40;;
31910;SDS011;18457;52.432;16.914;2023-03-19T09:25:16;68.30;;;34.50;;
31910;SDS011;18457;52.432;16.914;2023-03-19T09:27:48;65.70;;;32.30;;
31910;SDS011;18457;52.432;16.914;2023-03-19T09:30:20;76.20;;;33.10;;
31910;SDS011;18457;52.432;16.914;2023-03-19T09:32:52;63.00;;;33.20;;
31910;SDS011;18457;52.432;16.914;2023-03-19T09:37:59;67.70;;;32.60;;
31910;SDS011;18457;52.432;16.914;2023-03-19T09:40:33;62.40;;;32.50;;
31910;SDS011;18457;52.432;16.914;2023-03-19T09:43:13;64.40;;;33.90;;
31910;SDS011;18457;52.432;16.914;2023-03-19T09:45:57;52.00;;;26.90;;
31910;SDS011;18457;52.432;16.914;2023-03-19T09:48:32;48.20;;;24.00;;
31910;SDS011;18457;52.432;16.914;2023-03-19T09:51:12;50.40;;;24.80;;
31910;SDS011;18457;52.432;16.914;2023-03-19T09:53:50;45.10;;;23.40;;
31910;SDS011;18457;52.432;16.914;2023-03-19T09:56:26;44.90;;;23.20;;
31910;SDS011;18457;52.432;16.914;2023-03-19T09:58:58;50.00;;;23.50;;
31910;SDS011;18457;52.432;16.914;2023-03-19T10:01:32;43.90;;;23.80;;
31910;SDS011;18457;52.432;16.914;2023-03-19T10:04:15;40.50;;;22.40;;
31910;SDS011;18457;52.432;16.914;2023-03-19T10:06:58;41.30;;;22.80;;
31910;SDS011;18457;52.432;16.914;2023-03-19T10:09:44;48.60;;;23.90;;
31910;SDS011;18457;52.432;16.914;2023-03-19T10:12:28;45.50;;;22.60;;
31910;SDS011;18457;52.432;16.914;2023-03-19T10:15:16;48.10;;;23.20;;
31910;SDS011;18457;52.432;16.914;2023-03-19T10:17:55;45.20;;;23.40;;
31910;SDS011;18457;52.432;16.914;2023-03-19T10:20:37;46.90;;;22.70;;
31910;SDS011;18457;52.432;16.914;2023-03-19T10:23:25;44.10;;;22.90;;
31910;SDS011;18457;52.432;16.914;2023-03-19T10:26:04;46.60;;;23.10;;
31910;SDS011;18457;52.432;16.914;2023-03-19T10:28:40;40.90;;;21.20;;
31910;SDS011;18457;52.432;16.914;2023-03-19T10:31:24;49.50;;;22.70;;
31910;SDS011;18457;52.432;16.914;2023-03-19T10:34:00;48.60;;;22.10;;
31910;SDS011;18457;52.432;16.914;2023-03-19T10:36:42;42.20;;;21.70;;
31910;SDS011;18457;52.432;16.914;2023-03-19T10:39:14;26.50;;;15.90;;
31910;SDS011;18457;52.432;16.914;2023-03-19T10:41:49;45.20;;;22.30;;
31910;SDS011;18457;52.432;16.914;2023-03-19T10:44:30;36.50;;;20.70;;
31910;SDS011;18457;52.432;16.914;2023-03-19T10:47:10;42.50;;;20.10;;
31910;SDS011;18457;52.432;16.914;2023-03-19T10:49:43;36.90;;;19.60;;
31910;SDS011;18457;52.432;16.914;2023-03-19T10:52:17;36.30;;;20.10;;
31910;SDS011;18457;52.432;16.914;2023-03-19T10:54:55;40.60;;;20.40;;
31910;SDS011;18457;52.432;16.914;2023-03-19T10:57:32;40.00;;;20.60;;
31910;SDS011;18457;52.432;16.914;2023-03-19T11:00:05;39.10;;;21.40;;
31910;SDS011;18457;52.432;16.914;2023-03-19T11:02:48;46.80;;;20.90;;
31910;SDS011;18457;52.432;16.914;2023-03-19T11:05:27;44.20;;;20.70;;
31910;SDS011;18457;52.432;16.914;2023-03-19T11:08:03;42.70;;;21.70;;
31910;SDS011;18457;52.432;16.914;2023-03-19T11:11:02;41.10;;;20.90;;
31910;SDS011;18457;52.432;16.914;2023-03-19T11:13:35;45.60;;;21.00;;
31910;SDS011;18457;52.432;16.914;2023-03-19T11:16:07;27.50;;;13.70;;
31910;SDS011;18457;52.432;16.914;2023-03-19T11:18:39;40.20;;;20.70;;
31910;SDS011;18457;52.432;16.914;2023-03-19T11:21:21;42.70;;;21.90;;
31910;SDS011;18457;52.432;16.914;2023-03-19T11:24:00;38.80;;;20.60;;
31910;SDS011;18457;52.432;16.914;2023-03-19T11:26:33;39.60;;;20.90;;
31910;SDS011;18457;52.432;16.914;2023-03-19T11:29:07;39.10;;;20.60;;
31910;SDS011;18457;52.432;16.914;2023-03-19T11:31:40;42.00;;;21.00;;
31910;SDS011;18457;52.432;16.914;2023-03-19T11:34:24;41.40;;;21.90;;
31910;SDS011;18457;52.432;16.914;2023-03-19T11:37:06;40.50;;;21.10;;
31910;SDS011;18457;52.432;16.914;2023-03-19T11:39:45;40.90;;;21.00;;
31910;SDS011;18457;52.432;16.914;2023-03-19T11:42:37;36.90;;;19.20;;
31910;SDS011;18457;52.432;16.914;2023-03-19T11:45:37;39.50;;;19.80;;
31910;SDS011;18457;52.432;16.914;2023-03-19T11:48:19;36.10;;;19.40;;
31910;SDS011;18457;52.432;16.914;2023-03-19T11:51:02;43.00;;;20.80;;
31910;SDS011;18457;52.432;16.914;2023-03-19T11:53:41;41.50;;;21.40;;
31910;SDS011;18457;52.432;16.914;2023-03-19T11:56:28;40.40;;;20.10;;
31910;SDS011;18457;52.432;16.914;2023-03-19T11:59:14;43.00;;;20.80;;
31910;SDS011;18457;52.432;16.914;2023-03-19T12:05:21;39.10;;;20.50;;
31910;SDS011;18457;52.432;16.914;2023-03-19T12:08:02;40.90;;;21.10;;
31910;SDS011;18457;52.432;16.914;2023-03-19T12:10:56;38.50;;;20.80;;
31910;SDS011;18457;52.432;16.914;2023-03-19T12:13:42;41.10;;;21.20;;
31910;SDS011;18457;52.432;16.914;2023-03-19T12:16:27;40.30;;;19.70;;
31910;SDS011;18457;52.432;16.914;2023-03-19T12:19:18;41.10;;;21.00;;
31910;SDS011;18457;52.432;16.914;2023-03-19T12:22:08;38.80;;;20.80;;
31910;SDS011;18457;52.432;16.914;2023-03-19T12:24:55;41.60;;;21.40;;
31910;SDS011;18457;52.432;16.914;2023-03-19T12:27:38;40.90;;;21.30;;
31910;SDS011;18457;52.432;16.914;2023-03-19T12:30:29;42.90;;;20.40;;
31910;SDS011;18457;52.432;16.914;2023-03-19T12:33:12;39.30;;;20.90;;
31910;SDS011;18457;52.432;16.914;2023-03-19T12:35:51;38.60;;;21.90;;
31910;SDS011;18457;52.432;16.914;2023-03-19T12:38:26;40.50;;;21.50;;
31910;SDS011;18457;52.432;16.914;2023-03-19T12:41:04;42.80;;;21.40;;
31910;SDS011;18457;52.432;16.914;2023-03-19T12:43:43;45.00;;;21.00;;
31910;SDS011;18457;52.432;16.914;2023-03-19T12:46:22;39.30;;;21.70;;
31910;SDS011;18457;52.432;16.914;2023-03-19T12:48:59;45.80;;;21.90;;
31910;SDS011;18457;52.432;16.914;2023-03-19T12:51:37;42.90;;;22.10;;
31910;SDS011;18457;52.432;16.914;2023-03-19T12:54:16;38.80;;;22.80;;
31910;SDS011;18457;52.432;16.914;2023-03-19T12:56:51;66.50;;;25.00;;
31910;SDS011;18457;52.432;16.914;2023-03-19T12:59:29;49.30;;;22.60;;
31910;SDS011;18457;52.432;16.914;2023-03-19T13:02:10;51.40;;;23.20;;
31910;SDS011;18457;52.432;16.914;2023-03-19T13:04:48;43.20;;;22.80;;
31910;SDS011;18457;52.432;16.914;2023-03-19T13:07:27;42.60;;;22.50;;
31910;SDS011;18457;52.432;16.914;2023-03-19T13:10:07;41.80;;;23.70;;
31910;SDS011;18457;52.432;16.914;2023-03-19T13:12:42;42.30;;;22.90;;
31910;SDS011;18457;52.432;16.914;2023-03-19T13:15:18;42.80;;;22.80;;
31910;SDS011;18457;52.432;16.914;2023-03-19T13:17:58;45.80;;;24.80;;
31910;SDS011;18457;52.432;16.914;2023-03-19T13:20:47;44.40;;;22.40;;
31910;SDS011;18457;52.432;16.914;2023-03-19T13:23:29;51.00;;;24.40;;
31910;SDS011;18457;52.432;16.914;2023-03-19T13:26:04;50.10;;;24.30;;
31910;SDS011;18457;52.432;16.914;2023-03-19T13:28:53;55.20;;;25.00;;
31910;SDS011;18457;52.432;16.914;2023-03-19T13:31:32;48.00;;;25.60;;
31910;SDS011;18457;52.432;16.914;2023-03-19T13:34:06;50.40;;;25.10;;
31910;SDS011;18457;52.432;16.914;2023-03-19T13:36:52;44.90;;;24.50;;
31910;SDS011;18457;52.432;16.914;2023-03-19T13:39:31;47.30;;;23.90;;
31910;SDS011;18457;52.432;16.914;2023-03-19T13:42:20;39.10;;;22.80;;
31910;SDS011;18457;52.432;16.914;2023-03-19T13:47:59;24.40;;;13.90;;
31910;SDS011;18457;52.432;16.914;2023-03-19T13:51:04;42.10;;;21.10;;
31910;SDS011;18457;52.432;16.914;2023-03-19T13:53:53;36.90;;;20.90;;
31910;SDS011;18457;52.432;16.914;2023-03-19T13:59:36;35.90;;;19.90;;
31910;SDS011;18457;52.432;16.914;2023-03-19T14:05:16;40.30;;;22.00;;
31910;SDS011;18457;52.432;16.914;2023-03-19T14:07:53;40.10;;;20.90;;
31910;SDS011;18457;52.432;16.914;2023-03-19T14:10:26;37.60;;;20.10;;
31910;SDS011;18457;52.432;16.914;2023-03-19T14:13:05;42.80;;;20.30;;
31910;SDS011;18457;52.432;16.914;2023-03-19T14:15:46;38.60;;;20.70;;
31910;SDS011;18457;52.432;16.914;2023-03-19T14:18:21;41.10;;;21.40;;
31910;SDS011;18457;52.432;16.914;2023-03-19T14:21:03;40.80;;;21.40;;
31910;SDS011;18457;52.432;16.914;2023-03-19T14:23:41;41.30;;;20.20;;
31910;SDS011;18457;52.432;16.914;2023-03-19T14:26:25;40.20;;;21.00;;
31910;SDS011;18457;52.432;16.914;2023-03-19T14:28:59;34.10;;;18.40;;
31910;SDS011;18457;52.432;16.914;2023-03-19T14:31:35;37.40;;;19.40;;
31910;SDS011;18457;52.432;16.914;2023-03-19T14:34:17;37.40;;;20.90;;
31910;SDS011;18457;52.432;16.914;2023-03-19T14:36:59;41.30;;;20.50;;
31910;SDS011;18457;52.432;16.914;2023-03-19T14:39:37;40.50;;;20.40;;
31910;SDS011;18457;52.432;16.914;2023-03-19T14:42:15;39.10;;;19.40;;
31910;SDS011;18457;52.432;16.914;2023-03-19T14:54:14;37.70;;;19.40;;
31910;SDS011;18457;52.432;16.914;2023-03-19T14:56:53;39.10;;;18.80;;
31910;SDS011;18457;52.432;16.914;2023-03-19T14:59:26;37.80;;;17.80;;
31910;SDS011;18457;52.432;16.914;2023-03-19T15:02:16;39.60;;;17.60;;
31910;SDS011;18457;52.432;16.914;2023-03-19T15:04:57;31.10;;;17.70;;
31910;SDS011;18457;52.432;16.914;2023-03-19T15:07:31;34.30;;;16.50;;
31910;SDS011;18457;52.432;16.914;2023-03-19T15:10:07;39.80;;;18.90;;
31910;SDS011;18457;52.432;16.914;2023-03-19T15:15:54;40.00;;;18.60;;
31910;SDS011;18457;52.432;16.914;2023-03-19T15:18:34;38.90;;;18.90;;
31910;SDS011;18457;52.432;16.914;2023-03-19T15:21:08;38.70;;;19.00;;
31910;SDS011;18457;52.432;16.914;2023-03-19T15:23:40;28.20;;;12.50;;
31910;SDS011;18457;52.432;16.914;2023-03-19T15:26:14;36.70;;;19.40;;
31910;SDS011;18457;52.432;16.914;2023-03-19T15:28:58;38.90;;;20.10;;
31910;SDS011;18457;52.432;16.914;2023-03-19T15:31:45;35.70;;;17.50;;
31910;SDS011;18457;52.432;16.914;2023-03-19T15:34:32;32.60;;;17.40;;
31910;SDS011;18457;52.432;16.914;2023-03-19T15:37:06;33.20;;;16.90;;
31910;SDS011;18457;52.432;16.914;2023-03-19T15:39:42;30.30;;;15.20;;
31910;SDS011;18457;52.432;16.914;2023-03-19T15:42:19;37.50;;;16.40;;
31910;SDS011;18457;52.432;16.914;2023-03-19T15:44:55;30.50;;;16.90;;
31910;SDS011;18457;52.432;16.914;2023-03-19T15:47:32;34.70;;;17.80;;